sensor_id;sensor_type;location;lat;lon;timestamp;pressure;altitude;pressure_sealevel;temperature;humidity
77975;BME280;67164;51.202;0.278;2024-03-29T00:00:40;98159.20;;;20.01;39.85
77975;BME280;67164;51.202;0.278;2024-03-29T00:03:05;98167.16;;;20.58;39.67
77975;BME280;67164;51.202;0.278;2024-03-29T00:05:30;98161.75;;;20.59;39.71
77975;BME280;67164;51.202;0.278;2024-03-29T00:07:56;98158.01;;;20.46;39.85
77975;BME280;67164;51.202;0.278;2024-03-29T00:10:21;98155.37;;;20.30;39.71
77975;BME280;67164;51.202;0.278;2024-03-29T00:12:47;98160.28;;;20.47;39.80
77975;BME280;67164;51.202;0.278;2024-03-29T00:15:13;98158.53;;;20.32;39.94
77975;BME280;67164;51.202;0.278;2024-03-29T00:17:39;98159.80;;;20.33;39.96
77975;BME280;67164;51.202;0.278;2024-03-29T00:20:06;98155.78;;;20.21;40.03
77975;BME280;67164;51.202;0.278;2024-03-29T00:22:30;98152.53;;;20.22;40.01
77975;BME280;67164;51.202;0.278;2024-03-29T00:24:56;98153.84;;;20.01;40.31
77975;BME280;67164;51.202;0.278;2024-03-29T00:27:22;98154.95;;;20.15;40.19
77975;BME280;67164;51.202;0.278;2024-03-29T00:29:48;98146.76;;;20.28;39.97
77975;BME280;67164;51.202;0.278;2024-03-29T00:32:14;98149.59;;;20.21;39.99
77975;BME280;67164;51.202;0.278;2024-03-29T00:34:39;98154.97;;;20.15;40.08
77975;BME280;67164;51.202;0.278;2024-03-29T00:37:05;98153.90;;;20.33;39.71
77975;BME280;67164;51.202;0.278;2024-03-29T00:39:31;98155.96;;;20.13;39.99
77975;BME280;67164;51.202;0.278;2024-03-29T00:41:57;98154.78;;;20.22;40.21
77975;BME280;67164;51.202;0.278;2024-03-29T00:44:23;98153.01;;;20.05;40.04
77975;BME280;67164;51.202;0.278;2024-03-29T00:46:48;98152.70;;;20.19;39.81
77975;BME280;67164;51.202;0.278;2024-03-29T00:49:14;98152.28;;;19.80;39.94
77975;BME280;67164;51.202;0.278;2024-03-29T00:51:40;98155.02;;;20.11;39.91
77975;BME280;67164;51.202;0.278;2024-03-29T00:54:06;98149.86;;;20.13;39.90
77975;BME280;67164;51.202;0.278;2024-03-29T00:56:31;98142.40;;;20.09;40.02
77975;BME280;67164;51.202;0.278;2024-03-29T00:58:57;98147.49;;;19.99;40.08
77975;BME280;67164;51.202;0.278;2024-03-29T01:01:23;98152.14;;;20.46;39.82
77975;BME280;67164;51.202;0.278;2024-03-29T01:03:49;98146.69;;;20.24;40.04
77975;BME280;67164;51.202;0.278;2024-03-29T01:06:15;98149.10;;;19.98;40.08
77975;BME280;67164;51.202;0.278;2024-03-29T01:08:41;98143.26;;;20.22;40.04
77975;BME280;67164;51.202;0.278;2024-03-29T01:11:06;98142.65;;;19.93;40.11
77975;BME280;67164;51.202;0.278;2024-03-29T01:13:33;98148.81;;;19.87;40.15
77975;BME280;67164;51.202;0.278;2024-03-29T01:15:58;98150.35;;;19.89;40.14
77975;BME280;67164;51.202;0.278;2024-03-29T01:18:24;98155.09;;;19.92;40.19
77975;BME280;67164;51.202;0.278;2024-03-29T01:20:50;98158.66;;;20.18;40.11
77975;BME280;67164;51.202;0.278;2024-03-29T01:23:15;98166.63;;;20.12;40.19
77975;BME280;67164;51.202;0.278;2024-03-29T01:25:41;98173.05;;;19.92;40.15
77975;BME280;67164;51.202;0.278;2024-03-29T01:28:07;98181.24;;;19.88;40.16
77975;BME280;67164;51.202;0.278;2024-03-29T01:30:33;98181.98;;;20.11;40.19
77975;BME280;67164;51.202;0.278;2024-03-29T01:32:59;98188.21;;;20.15;40.10
77975;BME280;67164;51.202;0.278;2024-03-29T01:35:24;98184.32;;;19.80;40.30
77975;BME280;67164;51.202;0.278;2024-03-29T01:37:50;98194.70;;;20.13;40.16
77975;BME280;67164;51.202;0.278;2024-03-29T01:40:16;98201.03;;;20.00;40.33
77975;BME280;67164;51.202;0.278;2024-03-29T01:42:42;98208.61;;;20.11;40.27
77975;BME280;67164;51.202;0.278;2024-03-29T01:45:08;98210.31;;;20.06;40.24
77975;BME280;67164;51.202;0.278;2024-03-29T01:47:33;98208.70;;;19.85;40.15
77975;BME280;67164;51.202;0.278;2024-03-29T01:49:59;98211.81;;;19.84;40.15
77975;BME280;67164;51.202;0.278;2024-03-29T01:52:27;98213.37;;;19.97;40.08
77975;BME280;67164;51.202;0.278;2024-03-29T01:54:51;98199.49;;;20.26;40.40
77975;BME280;67164;51.202;0.278;2024-03-29T01:57:17;98194.68;;;20.25;40.23
77975;BME280;67164;51.202;0.278;2024-03-29T01:59:43;98192.79;;;20.07;40.11
77975;BME280;67164;51.202;0.278;2024-03-29T02:02:09;98202.03;;;20.13;40.08
77975;BME280;67164;51.202;0.278;2024-03-29T02:04:35;98212.48;;;20.17;40.01
77975;BME280;67164;51.202;0.278;2024-03-29T02:07:00;98211.10;;;20.15;40.01
77975;BME280;67164;51.202;0.278;2024-03-29T02:09:26;98216.87;;;19.99;39.99
77975;BME280;67164;51.202;0.278;2024-03-29T02:11:52;98213.41;;;20.15;40.07
77975;BME280;67164;51.202;0.278;2024-03-29T02:14:17;98215.10;;;20.28;39.94
77975;BME280;67164;51.202;0.278;2024-03-29T02:16:43;98205.99;;;20.00;39.96
77975;BME280;67164;51.202;0.278;2024-03-29T02:19:09;98210.76;;;19.82;40.06
77975;BME280;67164;51.202;0.278;2024-03-29T02:21:37;98213.13;;;19.89;40.01
77975;BME280;67164;51.202;0.278;2024-03-29T02:24:05;98211.52;;;20.16;39.92
77975;BME280;67164;51.202;0.278;2024-03-29T02:26:27;98213.59;;;19.73;40.17
77975;BME280;67164;51.202;0.278;2024-03-29T02:28:52;98219.30;;;20.16;40.05
77975;BME280;67164;51.202;0.278;2024-03-29T02:31:18;98217.37;;;20.14;39.94
77975;BME280;67164;51.202;0.278;2024-03-29T02:33:44;98211.52;;;19.68;40.28
77975;BME280;67164;51.202;0.278;2024-03-29T02:36:10;98210.76;;;19.99;40.16
77975;BME280;67164;51.202;0.278;2024-03-29T02:38:36;98208.27;;;20.08;40.02
77975;BME280;67164;51.202;0.278;2024-03-29T02:41:02;98210.93;;;20.24;40.09
77975;BME280;67164;51.202;0.278;2024-03-29T02:43:28;98211.91;;;19.95;40.20
77975;BME280;67164;51.202;0.278;2024-03-29T02:45:53;98213.13;;;19.93;40.16
77975;BME280;67164;51.202;0.278;2024-03-29T02:48:19;98219.07;;;19.80;40.04
77975;BME280;67164;51.202;0.278;2024-03-29T02:50:45;98222.70;;;20.27;40.09
77975;BME280;67164;51.202;0.278;2024-03-29T02:53:10;98225.66;;;19.80;40.01
77975;BME280;67164;51.202;0.278;2024-03-29T02:55:36;98222.38;;;19.89;40.20
77975;BME280;67164;51.202;0.278;2024-03-29T02:58:02;98221.93;;;19.98;40.13
77975;BME280;67164;51.202;0.278;2024-03-29T03:00:28;98216.08;;;20.21;40.10
77975;BME280;67164;51.202;0.278;2024-03-29T03:02:54;98209.94;;;19.93;40.15
77975;BME280;67164;51.202;0.278;2024-03-29T03:05:20;98207.92;;;20.01;40.09
77975;BME280;67164;51.202;0.278;2024-03-29T03:07:45;98211.48;;;19.65;40.27
77975;BME280;67164;51.202;0.278;2024-03-29T03:10:11;98215.48;;;20.03;40.29
77975;BME280;67164;51.202;0.278;2024-03-29T03:12:37;98220.84;;;19.95;40.15
77975;BME280;67164;51.202;0.278;2024-03-29T03:15:04;98223.18;;;19.82;40.30
77975;BME280;67164;51.202;0.278;2024-03-29T03:17:30;98227.24;;;19.97;40.08
77975;BME280;67164;51.202;0.278;2024-03-29T03:19:55;98230.92;;;19.88;40.17
77975;BME280;67164;51.202;0.278;2024-03-29T03:22:20;98230.37;;;19.68;40.05
77975;BME280;67164;51.202;0.278;2024-03-29T03:24:46;98229.72;;;19.69;40.01
77975;BME280;67164;51.202;0.278;2024-03-29T03:27:12;98237.81;;;20.13;40.13
77975;BME280;67164;51.202;0.278;2024-03-29T03:29:38;98239.41;;;20.00;40.33
77975;BME280;67164;51.202;0.278;2024-03-29T03:32:05;98238.46;;;19.83;40.12
77975;BME280;67164;51.202;0.278;2024-03-29T03:34:29;98245.61;;;19.57;40.24
77975;BME280;67164;51.202;0.278;2024-03-29T03:36:56;98247.24;;;20.06;40.19
77975;BME280;67164;51.202;0.278;2024-03-29T03:39:21;98250.44;;;19.80;40.13
77975;BME280;67164;51.202;0.278;2024-03-29T03:41:47;98259.00;;;19.83;40.09
77975;BME280;67164;51.202;0.278;2024-03-29T03:44:13;98261.94;;;19.98;40.21
77975;BME280;67164;51.202;0.278;2024-03-29T03:46:39;98266.92;;;20.08;39.99
77975;BME280;67164;51.202;0.278;2024-03-29T03:49:04;98261.63;;;19.60;40.09
77975;BME280;67164;51.202;0.278;2024-03-29T03:51:30;98255.86;;;19.72;40.20
77975;BME280;67164;51.202;0.278;2024-03-29T03:53:56;98258.44;;;20.10;40.03
77975;BME280;67164;51.202;0.278;2024-03-29T03:56:22;98258.57;;;19.94;40.23
77975;BME280;67164;51.202;0.278;2024-03-29T03:58:48;98262.25;;;19.60;40.39
77975;BME280;67164;51.202;0.278;2024-03-29T04:01:14;98270.67;;;19.85;40.34
77975;BME280;67164;51.202;0.278;2024-03-29T04:03:39;98261.99;;;20.24;40.16
77975;BME280;67164;51.202;0.278;2024-03-29T04:06:06;98261.03;;;19.73;40.18
77975;BME280;67164;51.202;0.278;2024-03-29T04:08:31;98261.92;;;19.90;40.19
77975;BME280;67164;51.202;0.278;2024-03-29T04:10:57;98259.32;;;20.01;40.12
77975;BME280;67164;51.202;0.278;2024-03-29T04:13:23;98261.63;;;19.90;40.19
77975;BME280;67164;51.202;0.278;2024-03-29T04:15:48;98266.46;;;19.77;40.12
77975;BME280;67164;51.202;0.278;2024-03-29T04:18:14;98275.85;;;19.90;40.22
77975;BME280;67164;51.202;0.278;2024-03-29T04:20:40;98278.78;;;19.79;40.41
77975;BME280;67164;51.202;0.278;2024-03-29T04:23:06;98275.63;;;19.67;40.17
77975;BME280;67164;51.202;0.278;2024-03-29T04:25:32;98278.24;;;19.68;40.16
77975;BME280;67164;51.202;0.278;2024-03-29T04:27:58;98275.44;;;19.95;40.12
77975;BME280;67164;51.202;0.278;2024-03-29T04:30:23;98275.96;;;19.89;40.15
77975;BME280;67164;51.202;0.278;2024-03-29T04:32:49;98282.79;;;19.97;40.04
77975;BME280;67164;51.202;0.278;2024-03-29T04:35:15;98285.28;;;19.85;40.20
77975;BME280;67164;51.202;0.278;2024-03-29T04:37:41;98285.73;;;19.54;40.33
77975;BME280;67164;51.202;0.278;2024-03-29T04:40:07;98287.82;;;19.84;40.19
77975;BME280;67164;51.202;0.278;2024-03-29T04:42:32;98288.50;;;19.76;40.31
77975;BME280;67164;51.202;0.278;2024-03-29T04:44:58;98287.72;;;19.69;40.10
77975;BME280;67164;51.202;0.278;2024-03-29T04:47:24;98287.47;;;19.92;40.49
77975;BME280;67164;51.202;0.278;2024-03-29T04:49:50;98284.67;;;19.69;40.38
77975;BME280;67164;51.202;0.278;2024-03-29T04:52:15;98289.66;;;19.42;40.45
77975;BME280;67164;51.202;0.278;2024-03-29T04:54:41;98288.70;;;19.64;40.49
77975;BME280;67164;51.202;0.278;2024-03-29T04:57:07;98293.47;;;19.16;40.44
77975;BME280;67164;51.202;0.278;2024-03-29T04:59:33;98293.08;;;19.36;40.55
77975;BME280;67164;51.202;0.278;2024-03-29T05:01:59;98288.85;;;19.68;40.41
77975;BME280;67164;51.202;0.278;2024-03-29T05:04:25;98288.43;;;19.37;40.49
77975;BME280;67164;51.202;0.278;2024-03-29T05:06:51;98286.65;;;20.03;40.25
77975;BME280;67164;51.202;0.278;2024-03-29T05:09:16;98287.44;;;19.67;40.40
77975;BME280;67164;51.202;0.278;2024-03-29T05:11:42;98290.62;;;19.41;40.45
77975;BME280;67164;51.202;0.278;2024-03-29T05:14:08;98296.31;;;19.73;40.33
77975;BME280;67164;51.202;0.278;2024-03-29T05:16:34;98291.76;;;19.64;40.47
77975;BME280;67164;51.202;0.278;2024-03-29T05:18:59;98295.45;;;19.54;40.56
77975;BME280;67164;51.202;0.278;2024-03-29T05:21:25;98293.60;;;19.62;40.47
77975;BME280;67164;51.202;0.278;2024-03-29T05:23:51;98298.71;;;19.69;40.40
77975;BME280;67164;51.202;0.278;2024-03-29T05:26:17;98297.31;;;19.56;40.58
77975;BME280;67164;51.202;0.278;2024-03-29T05:28:43;98304.29;;;19.67;40.51
77975;BME280;67164;51.202;0.278;2024-03-29T05:31:13;98312.17;;;19.75;40.28
77975;BME280;67164;51.202;0.278;2024-03-29T05:33:34;98306.80;;;19.66;40.48
77975;BME280;67164;51.202;0.278;2024-03-29T05:36:00;98312.66;;;19.65;40.55
77975;BME280;67164;51.202;0.278;2024-03-29T05:38:26;98317.11;;;19.63;40.57
77975;BME280;67164;51.202;0.278;2024-03-29T05:40:52;98325.12;;;19.52;40.74
77975;BME280;67164;51.202;0.278;2024-03-29T05:43:18;98328.64;;;19.65;40.51
77975;BME280;67164;51.202;0.278;2024-03-29T05:45:43;98329.19;;;19.52;40.72
77975;BME280;67164;51.202;0.278;2024-03-29T05:48:09;98321.80;;;19.59;40.56
77975;BME280;67164;51.202;0.278;2024-03-29T05:50:35;98332.69;;;19.60;40.59
77975;BME280;67164;51.202;0.278;2024-03-29T05:53:01;98324.62;;;19.71;40.35
77975;BME280;67164;51.202;0.278;2024-03-29T05:55:27;98328.41;;;19.38;40.80
77975;BME280;67164;51.202;0.278;2024-03-29T05:57:53;98327.55;;;19.53;40.72
77975;BME280;67164;51.202;0.278;2024-03-29T06:00:19;98332.09;;;19.54;40.69
77975;BME280;67164;51.202;0.278;2024-03-29T06:02:44;98328.46;;;19.50;40.86
77975;BME280;67164;51.202;0.278;2024-03-29T06:05:10;98334.61;;;19.49;40.87
77975;BME280;67164;51.202;0.278;2024-03-29T06:07:37;98334.66;;;19.48;40.76
77975;BME280;67164;51.202;0.278;2024-03-29T06:10:02;98341.46;;;19.43;40.74
77975;BME280;67164;51.202;0.278;2024-03-29T06:12:27;98343.12;;;19.50;40.81
77975;BME280;67164;51.202;0.278;2024-03-29T06:14:53;98345.50;;;19.55;40.54
77975;BME280;67164;51.202;0.278;2024-03-29T06:17:19;98351.77;;;19.39;40.94
77975;BME280;67164;51.202;0.278;2024-03-29T06:19:45;98350.87;;;19.47;40.75
77975;BME280;67164;51.202;0.278;2024-03-29T06:22:10;98353.07;;;19.36;40.87
77975;BME280;67164;51.202;0.278;2024-03-29T06:24:36;98355.28;;;19.59;40.73
77975;BME280;67164;51.202;0.278;2024-03-29T06:27:02;98352.44;;;19.54;40.69
77975;BME280;67164;51.202;0.278;2024-03-29T06:29:28;98351.76;;;19.47;40.73
77975;BME280;67164;51.202;0.278;2024-03-29T06:31:54;98349.41;;;19.45;40.75
77975;BME280;67164;51.202;0.278;2024-03-29T06:34:20;98347.57;;;19.48;40.84
77975;BME280;67164;51.202;0.278;2024-03-29T06:36:45;98350.86;;;19.50;40.74
77975;BME280;67164;51.202;0.278;2024-03-29T06:39:11;98352.52;;;19.57;40.62
77975;BME280;67164;51.202;0.278;2024-03-29T06:41:37;98357.93;;;19.58;40.55
77975;BME280;67164;51.202;0.278;2024-03-29T06:44:03;98358.75;;;19.56;40.74
77975;BME280;67164;51.202;0.278;2024-03-29T06:46:29;98366.44;;;19.56;40.68
77975;BME280;67164;51.202;0.278;2024-03-29T06:48:55;98372.69;;;19.48;40.81
77975;BME280;67164;51.202;0.278;2024-03-29T06:51:20;98370.99;;;19.48;40.61
77975;BME280;67164;51.202;0.278;2024-03-29T06:53:46;98364.88;;;19.36;40.85
77975;BME280;67164;51.202;0.278;2024-03-29T06:56:12;98368.11;;;19.56;40.73
77975;BME280;67164;51.202;0.278;2024-03-29T06:58:38;98371.17;;;19.45;40.81
77975;BME280;67164;51.202;0.278;2024-03-29T07:01:04;98375.32;;;19.67;40.75
77975;BME280;67164;51.202;0.278;2024-03-29T07:03:29;98375.43;;;19.54;40.63
77975;BME280;67164;51.202;0.278;2024-03-29T07:05:56;98377.95;;;19.74;40.73
77975;BME280;67164;51.202;0.278;2024-03-29T07:08:21;98379.18;;;19.58;40.44
77975;BME280;67164;51.202;0.278;2024-03-29T07:10:47;98378.87;;;19.35;40.86
77975;BME280;67164;51.202;0.278;2024-03-29T07:13:13;98379.40;;;19.24;40.49
77975;BME280;67164;51.202;0.278;2024-03-29T07:15:38;98383.59;;;19.18;40.62
77975;BME280;67164;51.202;0.278;2024-03-29T07:18:05;98384.35;;;19.56;40.89
77975;BME280;67164;51.202;0.278;2024-03-29T07:20:30;98384.73;;;19.44;40.75
77975;BME280;67164;51.202;0.278;2024-03-29T07:22:56;98375.51;;;19.31;40.74
77975;BME280;67164;51.202;0.278;2024-03-29T07:25:22;98380.34;;;19.36;40.76
77975;BME280;67164;51.202;0.278;2024-03-29T07:27:48;98382.24;;;19.62;40.36
77975;BME280;67164;51.202;0.278;2024-03-29T07:30:16;98378.76;;;19.87;40.59
77975;BME280;67164;51.202;0.278;2024-03-29T07:32:39;98375.47;;;20.08;40.03
77975;BME280;67164;51.202;0.278;2024-03-29T07:35:06;98375.15;;;19.79;40.51
77975;BME280;67164;51.202;0.278;2024-03-29T07:37:31;98377.12;;;20.03;40.48
77975;BME280;67164;51.202;0.278;2024-03-29T07:39:57;98372.56;;;19.81;40.70
77975;BME280;67164;51.202;0.278;2024-03-29T07:42:22;98380.68;;;19.67;40.99
77975;BME280;67164;51.202;0.278;2024-03-29T07:44:48;98379.93;;;19.78;41.65
77975;BME280;67164;51.202;0.278;2024-03-29T07:47:14;98381.50;;;19.64;41.48
77975;BME280;67164;51.202;0.278;2024-03-29T07:49:40;98389.23;;;19.77;42.64
77975;BME280;67164;51.202;0.278;2024-03-29T07:52:06;98390.47;;;19.78;42.03
77975;BME280;67164;51.202;0.278;2024-03-29T07:54:31;98392.47;;;19.94;41.94
77975;BME280;67164;51.202;0.278;2024-03-29T07:56:57;98392.28;;;19.91;41.83
77975;BME280;67164;51.202;0.278;2024-03-29T07:59:23;98409.00;;;19.62;42.38
77975;BME280;67164;51.202;0.278;2024-03-29T08:01:49;98405.22;;;19.90;43.15
77975;BME280;67164;51.202;0.278;2024-03-29T08:04:15;98407.72;;;19.51;42.88
77975;BME280;67164;51.202;0.278;2024-03-29T08:06:40;98404.25;;;20.11;42.11
77975;BME280;67164;51.202;0.278;2024-03-29T08:09:06;98410.89;;;19.96;41.90
77975;BME280;67164;51.202;0.278;2024-03-29T08:11:32;98414.77;;;20.15;41.79
77975;BME280;67164;51.202;0.278;2024-03-29T08:13:58;98410.22;;;20.26;41.61
77975;BME280;67164;51.202;0.278;2024-03-29T08:16:24;98411.77;;;20.24;41.58
77975;BME280;67164;51.202;0.278;2024-03-29T08:18:49;98414.50;;;19.97;41.88
77975;BME280;67164;51.202;0.278;2024-03-29T08:21:15;98418.57;;;19.95;41.71
77975;BME280;67164;51.202;0.278;2024-03-29T08:23:41;98418.15;;;19.80;42.26
77975;BME280;67164;51.202;0.278;2024-03-29T08:26:07;98424.11;;;19.77;42.27
77975;BME280;67164;51.202;0.278;2024-03-29T08:28:32;98421.53;;;19.59;42.50
77975;BME280;67164;51.202;0.278;2024-03-29T08:30:59;98431.34;;;19.63;42.42
77975;BME280;67164;51.202;0.278;2024-03-29T08:33:24;98432.93;;;19.40;42.74
77975;BME280;67164;51.202;0.278;2024-03-29T08:35:50;98428.26;;;19.77;42.12
77975;BME280;67164;51.202;0.278;2024-03-29T08:38:16;98435.55;;;19.59;42.33
77975;BME280;67164;51.202;0.278;2024-03-29T08:40:41;98440.76;;;19.43;42.55
77975;BME280;67164;51.202;0.278;2024-03-29T08:43:07;98426.82;;;19.90;41.91
77975;BME280;67164;51.202;0.278;2024-03-29T08:45:33;98440.55;;;19.56;42.34
77975;BME280;67164;51.202;0.278;2024-03-29T08:47:59;98446.28;;;19.95;41.92
77975;BME280;67164;51.202;0.278;2024-03-29T08:50:25;98443.99;;;19.74;42.19
77975;BME280;67164;51.202;0.278;2024-03-29T08:52:50;98440.10;;;19.35;42.31
77975;BME280;67164;51.202;0.278;2024-03-29T08:55:16;98436.54;;;19.92;41.73
77975;BME280;67164;51.202;0.278;2024-03-29T08:57:42;98437.74;;;19.30;42.22
77975;BME280;67164;51.202;0.278;2024-03-29T09:00:09;98447.63;;;19.29;42.19
77975;BME280;67164;51.202;0.278;2024-03-29T09:02:33;98449.66;;;19.46;41.94
77975;BME280;67164;51.202;0.278;2024-03-29T09:04:59;98441.91;;;19.63;42.00
77975;BME280;67164;51.202;0.278;2024-03-29T09:07:25;98444.32;;;19.29;41.74
77975;BME280;67164;51.202;0.278;2024-03-29T09:09:51;98449.11;;;19.03;42.09
77975;BME280;67164;51.202;0.278;2024-03-29T09:12:17;98436.52;;;19.52;41.73
77975;BME280;67164;51.202;0.278;2024-03-29T09:14:42;98443.29;;;19.77;41.69
77975;BME280;67164;51.202;0.278;2024-03-29T09:17:08;98440.54;;;19.98;41.34
77975;BME280;67164;51.202;0.278;2024-03-29T09:19:34;98443.79;;;20.15;41.09
77975;BME280;67164;51.202;0.278;2024-03-29T09:22:00;98456.96;;;19.65;41.42
77975;BME280;67164;51.202;0.278;2024-03-29T09:24:26;98454.48;;;19.69;41.10
77975;BME280;67164;51.202;0.278;2024-03-29T09:26:52;98456.95;;;19.75;40.95
77975;BME280;67164;51.202;0.278;2024-03-29T09:29:17;98455.78;;;19.92;40.73
77975;BME280;67164;51.202;0.278;2024-03-29T09:31:43;98454.18;;;20.21;40.27
77975;BME280;67164;51.202;0.278;2024-03-29T09:34:09;98458.51;;;20.08;40.46
77975;BME280;67164;51.202;0.278;2024-03-29T09:36:35;98459.61;;;19.96;40.57
77975;BME280;67164;51.202;0.278;2024-03-29T09:39:00;98459.33;;;20.04;40.42
77975;BME280;67164;51.202;0.278;2024-03-29T09:41:27;98464.97;;;20.00;40.81
77975;BME280;67164;51.202;0.278;2024-03-29T09:43:53;98457.33;;;19.85;40.72
77975;BME280;67164;51.202;0.278;2024-03-29T09:46:18;98465.25;;;20.06;40.70
77975;BME280;67164;51.202;0.278;2024-03-29T09:48:44;98464.96;;;19.64;40.94
77975;BME280;67164;51.202;0.278;2024-03-29T09:51:10;98481.52;;;19.57;41.06
77975;BME280;67164;51.202;0.278;2024-03-29T09:53:37;98470.07;;;19.78;41.09
77975;BME280;67164;51.202;0.278;2024-03-29T09:56:02;98478.38;;;19.54;41.13
77975;BME280;67164;51.202;0.278;2024-03-29T09:58:27;98475.59;;;19.76;41.08
77975;BME280;67164;51.202;0.278;2024-03-29T10:00:55;98479.87;;;19.90;40.86
77975;BME280;67164;51.202;0.278;2024-03-29T10:03:19;98470.88;;;19.96;40.79
77975;BME280;67164;51.202;0.278;2024-03-29T10:05:44;98471.01;;;19.70;40.77
77975;BME280;67164;51.202;0.278;2024-03-29T10:08:10;98485.85;;;19.85;40.59
77975;BME280;67164;51.202;0.278;2024-03-29T10:10:36;98485.22;;;19.62;40.91
77975;BME280;67164;51.202;0.278;2024-03-29T10:13:02;98481.62;;;20.28;40.64
77975;BME280;67164;51.202;0.278;2024-03-29T10:15:29;98490.10;;;19.73;41.02
77975;BME280;67164;51.202;0.278;2024-03-29T10:17:53;98480.93;;;19.50;41.34
77975;BME280;67164;51.202;0.278;2024-03-29T10:20:19;98478.06;;;19.45;41.44
77975;BME280;67164;51.202;0.278;2024-03-29T10:22:46;98478.84;;;19.93;41.13
77975;BME280;67164;51.202;0.278;2024-03-29T10:25:11;98477.52;;;19.58;41.25
77975;BME280;67164;51.202;0.278;2024-03-29T10:27:37;98465.78;;;19.58;41.22
77975;BME280;67164;51.202;0.278;2024-03-29T10:30:03;98467.91;;;19.85;41.15
77975;BME280;67164;51.202;0.278;2024-03-29T10:32:28;98470.44;;;19.90;40.84
77975;BME280;67164;51.202;0.278;2024-03-29T10:34:54;98467.55;;;19.73;40.99
77975;BME280;67164;51.202;0.278;2024-03-29T10:37:20;98460.80;;;19.62;40.92
77975;BME280;67164;51.202;0.278;2024-03-29T10:39:46;98469.81;;;20.01;41.02
77975;BME280;67164;51.202;0.278;2024-03-29T10:42:12;98471.78;;;19.71;41.07
77975;BME280;67164;51.202;0.278;2024-03-29T10:44:39;98483.80;;;19.51;40.98
77975;BME280;67164;51.202;0.278;2024-03-29T10:47:04;98475.00;;;19.94;41.05
77975;BME280;67164;51.202;0.278;2024-03-29T10:49:30;98479.76;;;19.72;41.05
77975;BME280;67164;51.202;0.278;2024-03-29T10:51:55;98479.58;;;19.69;41.13
77975;BME280;67164;51.202;0.278;2024-03-29T10:54:21;98480.41;;;20.00;41.06
77975;BME280;67164;51.202;0.278;2024-03-29T10:56:51;98478.36;;;19.63;41.15
77975;BME280;67164;51.202;0.278;2024-03-29T10:59:19;98486.99;;;19.94;41.06
77975;BME280;67164;51.202;0.278;2024-03-29T11:01:41;98486.54;;;19.44;41.09
77975;BME280;67164;51.202;0.278;2024-03-29T11:04:12;98484.75;;;19.68;41.03
77975;BME280;67164;51.202;0.278;2024-03-29T11:06:31;98490.49;;;19.97;40.95
77975;BME280;67164;51.202;0.278;2024-03-29T11:08:56;98493.28;;;19.88;41.02
77975;BME280;67164;51.202;0.278;2024-03-29T11:11:23;98495.53;;;19.70;41.01
77975;BME280;67164;51.202;0.278;2024-03-29T11:13:50;98491.63;;;19.91;41.03
77975;BME280;67164;51.202;0.278;2024-03-29T11:16:13;98502.26;;;19.93;40.94
77975;BME280;67164;51.202;0.278;2024-03-29T11:18:39;98500.49;;;19.91;41.01
77975;BME280;67164;51.202;0.278;2024-03-29T11:21:05;98503.01;;;19.67;40.93
77975;BME280;67164;51.202;0.278;2024-03-29T11:23:30;98512.47;;;20.03;40.76
77975;BME280;67164;51.202;0.278;2024-03-29T11:25:57;98503.05;;;19.82;41.01
77975;BME280;67164;51.202;0.278;2024-03-29T11:28:24;98501.58;;;19.99;40.82
77975;BME280;67164;51.202;0.278;2024-03-29T11:30:48;98500.50;;;20.10;40.97
77975;BME280;67164;51.202;0.278;2024-03-29T11:33:25;98508.68;;;19.88;40.90
77975;BME280;67164;51.202;0.278;2024-03-29T11:35:40;98505.80;;;19.91;40.84
77975;BME280;67164;51.202;0.278;2024-03-29T11:38:05;98501.64;;;19.82;40.92
77975;BME280;67164;51.202;0.278;2024-03-29T11:40:32;98506.53;;;19.78;41.00
77975;BME280;67164;51.202;0.278;2024-03-29T11:42:57;98509.69;;;19.98;40.78
77975;BME280;67164;51.202;0.278;2024-03-29T11:45:25;98509.50;;;19.82;40.94
77975;BME280;67164;51.202;0.278;2024-03-29T11:47:49;98506.93;;;19.79;40.98
77975;BME280;67164;51.202;0.278;2024-03-29T11:50:14;98499.57;;;19.57;40.92
77975;BME280;67164;51.202;0.278;2024-03-29T11:52:40;98514.88;;;19.84;40.84
77975;BME280;67164;51.202;0.278;2024-03-29T11:55:06;98517.34;;;19.82;40.88
77975;BME280;67164;51.202;0.278;2024-03-29T11:57:31;98518.48;;;19.60;40.85
77975;BME280;67164;51.202;0.278;2024-03-29T11:59:57;98517.85;;;19.51;40.93
77975;BME280;67164;51.202;0.278;2024-03-29T12:02:23;98509.70;;;19.56;40.80
77975;BME280;67164;51.202;0.278;2024-03-29T12:04:49;98506.87;;;19.77;40.85
77975;BME280;67164;51.202;0.278;2024-03-29T12:07:15;98517.89;;;19.93;40.94
77975;BME280;67164;51.202;0.278;2024-03-29T12:09:41;98515.54;;;19.79;40.86
77975;BME280;67164;51.202;0.278;2024-03-29T12:12:07;98519.58;;;19.68;40.99
77975;BME280;67164;51.202;0.278;2024-03-29T12:14:32;98527.15;;;19.70;40.99
77975;BME280;67164;51.202;0.278;2024-03-29T12:16:58;98531.48;;;19.79;40.81
77975;BME280;67164;51.202;0.278;2024-03-29T12:19:24;98529.45;;;19.66;40.96
77975;BME280;67164;51.202;0.278;2024-03-29T12:21:50;98529.44;;;19.71;40.90
77975;BME280;67164;51.202;0.278;2024-03-29T12:24:16;98535.78;;;19.95;40.90
77975;BME280;67164;51.202;0.278;2024-03-29T12:26:41;98540.29;;;19.50;40.83
77975;BME280;67164;51.202;0.278;2024-03-29T12:29:07;98539.55;;;19.55;41.05
77975;BME280;67164;51.202;0.278;2024-03-29T12:31:33;98542.23;;;19.49;41.15
77975;BME280;67164;51.202;0.278;2024-03-29T12:33:59;98543.30;;;19.85;40.97
77975;BME280;67164;51.202;0.278;2024-03-29T12:36:25;98546.73;;;19.65;40.97
77975;BME280;67164;51.202;0.278;2024-03-29T12:38:50;98544.18;;;19.63;40.93
77975;BME280;67164;51.202;0.278;2024-03-29T12:41:16;98540.48;;;19.64;40.90
77975;BME280;67164;51.202;0.278;2024-03-29T12:43:42;98555.12;;;19.65;40.83
77975;BME280;67164;51.202;0.278;2024-03-29T12:46:08;98563.64;;;19.63;40.84
77975;BME280;67164;51.202;0.278;2024-03-29T12:48:35;98564.97;;;19.61;40.92
77975;BME280;67164;51.202;0.278;2024-03-29T12:51:00;98563.25;;;19.62;40.92